Time,TemperatureF,DewpointF,PressureIn,WindDirection,WindDirectionDegrees,WindSpeedMPH,WindSpeedGustMPH,Humidity,HourlyPrecipIn,Conditions,Clouds,dailyrainin,SoftwareType,DateUTC
2013-08-04 00:02:00,63.0,56.0,-100.00,NE,35,6.0,7.0,78,0.00,,,-99.99,,2013-08-04 05:02:00,
2013-08-04 00:12:00,63.0,56.0,-100.00,NE,35,6.0,7.0,78,0.00,,,-99.99,,2013-08-04 05:12:00,
2013-08-04 00:22:00,63.0,56.0,-100.00,NE,40,6.0,7.0,78,0.00,,,-99.99,,2013-08-04 05:22:00,
2013-08-04 00:32:00,63.0,56.0,-100.00,NE,35,6.0,6.0,78,0.00,,,-99.99,,2013-08-04 05:32:00,
2013-08-04 00:42:00,62.0,56.0,-100.00,NE,40,5.0,6.0,78,0.00,,,-99.99,,2013-08-04 05:42:00,
2013-08-04 01:02:00,63.0,56.0,-100.00,NE,50,3.0,6.0,78,0.00,,,-99.99,,2013-08-04 06:02:00,
2013-08-04 01:12:00,63.0,56.0,-100.00,NE,50,2.0,4.0,78,0.00,,,-99.99,,2013-08-04 06:12:00,
2013-08-04 01:22:00,64.0,56.0,-100.00,ENE,65,6.0,7.0,76,0.00,,,-99.99,,2013-08-04 06:22:00,
2013-08-04 01:32:00,64.0,56.0,-100.00,NNE,30,3.0,7.0,75,0.00,,,-99.99,,2013-08-04 06:32:00,
2013-08-04 01:43:00,63.0,56.0,-100.00,NE,35,4.0,5.0,76,0.00,,,-99.99,,2013-08-04 06:43:00,
2013-08-04 01:52:00,63.0,56.0,-100.00,NE,50,3.0,5.0,77,0.00,,,-99.99,,2013-08-04 06:52:00,
2013-08-04 02:02:00,63.0,56.0,-100.00,NE,45,4.0,6.0,78,0.00,,,-99.99,,2013-08-04 07:02:00,
2013-08-04 02:12:00,63.0,56.0,-100.00,ENE,65,6.0,7.0,78,0.00,,,-99.99,,2013-08-04 07:12:00,
2013-08-04 02:22:00,63.0,56.0,-100.00,ENE,65,6.0,7.0,76,0.00,,,-99.99,,2013-08-04 07:22:00,
2013-08-04 02:33:00,64.0,56.0,-100.00,ENE,70,7.0,9.0,75,0.00,,,-99.99,,2013-08-04 07:33:00,
2013-08-04 02:52:00,64.0,56.0,-100.00,ENE,65,9.0,11.0,74,0.00,,,-99.99,,2013-08-04 07:52:00,
2013-08-04 03:02:00,64.0,56.0,-100.00,ENE,65,9.0,11.0,74,0.00,,,-99.99,,2013-08-04 08:02:00,
2013-08-04 03:12:00,63.0,55.0,-100.00,ENE,75,7.0,11.0,74,0.00,,,-99.99,,2013-08-04 08:12:00,
2013-08-04 03:22:00,63.0,55.0,-100.00,ENE,65,10.0,11.0,76,0.00,,,-99.99,,2013-08-04 08:22:00,
2013-08-04 03:33:00,63.0,55.0,-100.00,ENE,75,7.0,11.0,76,0.00,,,-99.99,,2013-08-04 08:33:00,
2013-08-04 03:43:00,63.0,55.0,-100.00,ENE,70,7.0,9.0,76,0.00,,,-99.99,,2013-08-04 08:43:00,
2013-08-04 03:53:00,62.0,55.0,-100.00,East,90,4.0,9.0,78,0.00,,,-99.99,,2013-08-04 08:53:00,
2013-08-04 04:02:00,61.0,55.0,-100.00,East,85,3.0,6.0,81,0.00,,,-99.99,,2013-08-04 09:02:00,
2013-08-04 04:12:00,61.0,55.0,-100.00,East,85,4.0,6.0,81,0.00,,,-99.99,,2013-08-04 09:12:00,
2013-08-04 04:22:00,61.0,56.0,-100.00,ENE,70,6.0,8.0,81,0.00,,,-99.99,,2013-08-04 09:22:00,
2013-08-04 04:32:00,61.0,56.0,-100.00,ENE,70,6.0,8.0,81,0.00,,,-99.99,,2013-08-04 09:32:00,
2013-08-04 04:43:00,60.0,55.0,-100.00,East,100,4.0,6.0,81,0.00,,,-99.99,,2013-08-04 09:43:00,
2013-08-04 05:02:00,60.0,55.0,-100.00,East,95,4.0,7.0,82,0.00,,,-99.99,,2013-08-04 10:02:00,
2013-08-04 05:12:00,60.0,55.0,-100.00,East,95,4.0,7.0,82,0.00,,,-99.99,,2013-08-04 10:12:00,
2013-08-04 05:22:00,60.0,55.0,-100.00,East,85,4.0,6.0,84,0.00,,,-99.99,,2013-08-04 10:22:00,
2013-08-04 05:32:00,60.0,55.0,-100.00,East,85,4.0,6.0,84,0.00,,,-99.99,,2013-08-04 10:32:00,
2013-08-04 05:43:00,61.0,55.0,-100.00,East,100,5.0,7.0,82,0.00,,,-99.99,,2013-08-04 10:43:00,
2013-08-04 06:22:00,60.0,54.0,-100.00,ESE,105,3.0,4.0,83,0.00,,,-99.99,,2013-08-04 11:22:00,
2013-08-04 09:12:00,69.0,57.0,-100.00,ESE,110,7.0,10.0,66,0.00,,,-99.99,,2013-08-04 14:12:00,
2013-08-04 09:32:00,71.0,58.0,-100.00,SE,125,6.0,13.0,64,0.00,,,-99.99,,2013-08-04 14:32:00,
2013-08-04 09:43:00,71.0,57.0,-100.00,ESE,115,8.0,12.0,62,0.00,,,-99.99,,2013-08-04 14:43:00,
2013-08-04 09:53:00,71.0,58.0,-100.00,SE,130,9.0,12.0,62,0.00,,,-99.99,,2013-08-04 14:53:00,
2013-08-04 10:02:00,71.0,58.0,-100.00,SE,130,9.0,12.0,62,0.00,,,-99.99,,2013-08-04 15:02:00,
2013-08-04 10:12:00,71.0,58.0,-100.00,SE,130,9.0,12.0,62,0.00,,,-99.99,,2013-08-04 15:12:00,
2013-08-04 10:22:00,72.0,56.0,-100.00,SE,145,12.0,14.0,57,0.00,,,-99.99,,2013-08-04 15:22:00,
2013-08-04 10:32:00,72.0,56.0,-100.00,SE,140,11.0,17.0,58,0.00,,,-99.99,,2013-08-04 15:32:00,
2013-08-04 10:43:00,72.0,57.0,-100.00,SE,130,11.0,17.0,58,0.00,,,-99.99,,2013-08-04 15:43:00,
2013-08-04 11:02:00,73.0,57.0,-100.00,SE,140,11.0,18.0,57,0.00,,,-99.99,,2013-08-04 16:02:00,
2013-08-04 11:12:00,73.0,57.0,-100.00,SE,125,13.0,18.0,56,0.00,,,-99.99,,2013-08-04 16:12:00,
2013-08-04 11:22:00,73.0,56.0,-100.00,SE,130,16.0,19.0,54,0.00,,,-99.99,,2013-08-04 16:22:00,
2013-08-04 11:32:00,74.0,56.0,-100.00,SE,145,16.0,20.0,53,0.00,,,-99.99,,2013-08-04 16:32:00,
2013-08-04 11:42:00,75.0,58.0,-100.00,SSE,150,10.0,18.0,54,0.00,,,-99.99,,2013-08-04 16:42:00,
2013-08-04 11:53:00,75.0,58.0,-100.00,SSE,150,10.0,18.0,54,0.00,,,-99.99,,2013-08-04 16:53:00,
2013-08-04 12:02:00,75.0,57.0,-100.00,SE,130,9.0,17.0,52,0.00,,,-99.99,,2013-08-04 17:02:00,
2013-08-04 12:12:00,75.0,57.0,-100.00,SE,130,9.0,17.0,52,0.00,,,-99.99,,2013-08-04 17:12:00,
2013-08-04 12:22:00,75.0,57.0,-100.00,SE,130,9.0,17.0,52,0.00,,,-99.99,,2013-08-04 17:22:00,
2013-08-04 12:32:00,79.0,58.0,-100.00,SSE,165,8.0,17.0,49,0.00,,,-99.99,,2013-08-04 17:32:00,
2013-08-04 12:43:00,78.0,57.0,-100.00,South,175,10.0,16.0,49,0.00,,,-99.99,,2013-08-04 17:43:00,
2013-08-04 12:53:00,78.0,57.0,-100.00,South,175,10.0,16.0,49,0.00,,,-99.99,,2013-08-04 17:53:00,
2013-08-04 13:02:00,78.0,57.0,-100.00,SSE,165,10.0,14.0,48,0.00,,,-99.99,,2013-08-04 18:02:00,
2013-08-04 13:12:00,79.0,57.0,-100.00,South,175,10.0,18.0,48,0.00,,,-99.99,,2013-08-04 18:12:00,
2013-08-04 13:23:00,80.0,58.0,-100.00,South,175,12.0,17.0,47,0.00,,,-99.99,,2013-08-04 18:23:00,
2013-08-04 13:33:00,80.0,58.0,-100.00,South,180,11.0,16.0,47,0.00,,,-99.99,,2013-08-04 18:33:00,
2013-08-04 13:43:00,79.0,57.0,-100.00,South,180,12.0,17.0,47,0.00,,,-99.99,,2013-08-04 18:43:00,
2013-08-04 13:52:00,79.0,58.0,-100.00,SSE,165,11.0,14.0,47,0.00,,,-99.99,,2013-08-04 18:52:00,
2013-08-04 14:02:00,81.0,58.0,-100.00,South,170,7.0,12.0,46,0.00,,,-99.99,,2013-08-04 19:02:00,
2013-08-04 14:12:00,81.0,58.0,-100.00,South,185,7.0,15.0,45,0.00,,,-99.99,,2013-08-04 19:12:00,
2013-08-04 14:22:00,80.0,58.0,-100.00,SSE,165,7.0,13.0,45,0.00,,,-99.99,,2013-08-04 19:22:00,
2013-08-04 14:32:00,80.0,58.0,-100.00,SE,135,6.0,10.0,46,0.00,,,-99.99,,2013-08-04 19:32:00,
2013-08-04 14:43:00,80.0,58.0,-100.00,SE,145,8.0,12.0,47,0.00,,,-99.99,,2013-08-04 19:43:00,
2013-08-04 15:02:00,80.0,59.0,-100.00,SSE,160,7.0,12.0,47,0.00,,,-99.99,,2013-08-04 20:02:00,
2013-08-04 15:22:00,82.0,60.0,-100.00,SSE,165,11.0,15.0,46,0.00,,,-99.99,,2013-08-04 20:22:00,
2013-08-04 15:33:00,83.0,60.0,-100.00,ESE,120,6.0,9.0,45,0.00,,,-99.99,,2013-08-04 20:33:00,
2013-08-04 15:42:00,82.0,60.0,-100.00,South,170,7.0,14.0,47,0.00,,,-99.99,,2013-08-04 20:42:00,
2013-08-04 16:02:00,80.0,59.0,-100.00,South,180,11.0,15.0,49,0.00,,,-99.99,,2013-08-04 21:02:00,
2013-08-04 16:12:00,80.0,59.0,-100.00,South,185,11.0,16.0,49,0.00,,,-99.99,,2013-08-04 21:12:00,
2013-08-04 16:22:00,79.0,60.0,-100.00,South,185,12.0,17.0,50,0.00,,,-99.99,,2013-08-04 21:22:00,
2013-08-04 16:32:00,80.0,60.0,-100.00,South,185,10.0,16.0,51,0.00,,,-99.99,,2013-08-04 21:32:00,
2013-08-04 16:43:00,80.0,61.0,-100.00,South,185,9.0,14.0,51,0.00,,,-99.99,,2013-08-04 21:43:00,
2013-08-04 16:53:00,81.0,61.0,-100.00,South,180,11.0,14.0,51,0.00,,,-99.99,,2013-08-04 21:53:00,
2013-08-04 17:02:00,80.0,61.0,-100.00,South,170,7.0,14.0,52,0.00,,,-99.99,,2013-08-04 22:02:00,
2013-08-04 17:12:00,80.0,62.0,-100.00,South,175,6.0,12.0,53,0.00,,,-99.99,,2013-08-04 22:12:00,
2013-08-04 17:22:00,79.0,61.0,-100.00,SSE,150,6.0,11.0,53,0.00,,,-99.99,,2013-08-04 22:22:00,
2013-08-04 17:32:00,78.0,61.0,-100.00,SSE,150,7.0,10.0,55,0.00,,,-99.99,,2013-08-04 22:32:00,
2013-08-04 17:43:00,80.0,62.0,-100.00,South,175,8.0,10.0,55,0.00,,,-99.99,,2013-08-04 22:43:00,
2013-08-04 18:02:00,80.0,62.0,-100.00,SE,130,9.0,11.0,54,0.00,,,-99.99,,2013-08-04 23:02:00,
2013-08-04 18:12:00,79.0,62.0,-100.00,SSE,155,7.0,11.0,55,0.00,,,-99.99,,2013-08-04 23:12:00,
2013-08-04 18:22:00,79.0,62.0,-100.00,SSE,155,7.0,11.0,55,0.00,,,-99.99,,2013-08-04 23:22:00,
2013-08-04 18:32:00,79.0,62.0,-100.00,SE,130,6.0,9.0,57,0.00,,,-99.99,,2013-08-04 23:32:00,
2013-08-04 18:43:00,78.0,62.0,-100.00,SE,130,7.0,10.0,57,0.00,,,-99.99,,2013-08-04 23:43:00,
2013-08-04 18:53:00,78.0,62.0,-100.00,SE,130,7.0,10.0,57,0.00,,,-99.99,,2013-08-04 23:53:00,
2013-08-04 19:02:00,78.0,62.0,-100.00,SE,130,7.0,10.0,57,0.00,,,-99.99,,2013-08-05 00:02:00,
2013-08-04 19:22:00,77.0,62.0,-100.00,SE,125,6.0,9.0,59,0.00,,,-99.99,,2013-08-05 00:22:00,
2013-08-04 19:33:00,77.0,62.0,-100.00,SE,135,6.0,10.0,59,0.00,,,-99.99,,2013-08-05 00:33:00,
2013-08-04 19:42:00,76.0,62.0,-100.00,SE,125,9.0,12.0,60,0.00,,,-99.99,,2013-08-05 00:42:00,
2013-08-04 19:52:00,76.0,62.0,-100.00,SE,125,9.0,13.0,60,0.00,,,-99.99,,2013-08-05 00:52:00,
2013-08-04 20:02:00,76.0,62.0,-100.00,SE,130,8.0,13.0,60,0.00,,,-99.99,,2013-08-05 01:02:00,
2013-08-04 20:12:00,76.0,62.0,-100.00,SE,130,8.0,13.0,60,0.00,,,-99.99,,2013-08-05 01:12:00,
2013-08-04 20:22:00,75.0,62.0,-100.00,SE,130,7.0,9.0,62,0.00,,,-99.99,,2013-08-05 01:22:00,
2013-08-04 20:33:00,75.0,62.0,-100.00,SE,130,7.0,9.0,62,0.00,,,-99.99,,2013-08-05 01:33:00,
2013-08-04 20:42:00,75.0,62.0,-100.00,SE,130,8.0,10.0,63,0.00,,,-99.99,,2013-08-05 01:42:00,
2013-08-04 21:02:00,74.0,62.0,-100.00,SE,135,7.0,11.0,64,0.00,,,-99.99,,2013-08-05 02:02:00,
2013-08-04 21:12:00,74.0,62.0,-100.00,SE,140,7.0,11.0,65,0.00,,,-99.99,,2013-08-05 02:12:00,
2013-08-04 21:22:00,74.0,62.0,-100.00,SE,140,7.0,11.0,65,0.00,,,-99.99,,2013-08-05 02:22:00,
2013-08-04 21:33:00,74.0,62.0,-100.00,SE,140,7.0,11.0,65,0.00,,,-99.99,,2013-08-05 02:33:00,
2013-08-04 21:43:00,74.0,62.0,-100.00,SSE,155,7.0,11.0,67,0.00,,,-99.99,,2013-08-05 02:43:00,
2013-08-04 21:53:00,73.0,62.0,-100.00,SSE,165,7.0,9.0,68,0.00,,,-99.99,,2013-08-05 02:53:00,
2013-08-04 22:02:00,73.0,62.0,-100.00,SSE,165,7.0,11.0,68,0.00,,,-99.99,,2013-08-05 03:02:00,
2013-08-04 22:12:00,73.0,62.0,-100.00,SSE,165,7.0,9.0,69,0.00,,,-99.99,,2013-08-05 03:12:00,
2013-08-04 22:22:00,73.0,63.0,-100.00,SSE,160,7.0,11.0,70,0.00,,,-99.99,,2013-08-05 03:22:00,
2013-08-04 22:32:00,73.0,62.0,-100.00,South,170,9.0,11.0,69,0.00,,,-99.99,,2013-08-05 03:32:00,
2013-08-04 22:42:00,73.0,63.0,-100.00,SSE,165,8.0,12.0,70,0.00,,,-99.99,,2013-08-05 03:42:00,
2013-08-04 22:53:00,73.0,63.0,-100.00,SSE,165,8.0,12.0,70,0.00,,,-99.99,,2013-08-05 03:53:00,
2013-08-04 23:02:00,72.0,63.0,-100.00,South,170,7.0,10.0,71,0.00,,,-99.99,,2013-08-05 04:02:00,
2013-08-04 23:12:00,72.0,62.0,-100.00,South,175,7.0,10.0,71,0.00,,,-99.99,,2013-08-05 04:12:00,
2013-08-04 23:22:00,72.0,62.0,-100.00,South,180,7.0,9.0,71,0.00,,,-99.99,,2013-08-05 04:22:00,
2013-08-04 23:32:00,72.0,63.0,-100.00,South,170,6.0,8.0,72,0.00,,,-99.99,,2013-08-05 04:32:00,
2013-08-04 23:43:00,72.0,63.0,-100.00,South,170,6.0,8.0,72,0.00,,,-99.99,,2013-08-05 04:43:00,
2013-08-04 23:52:00,72.0,63.0,-100.00,South,180,7.0,8.0,73,0.00,,,-99.99,,2013-08-05 04:52:00,